Stoutsville, Missouri
Current Conditions -  °F | °C
As of 1:35 AM on Friday 31 Oct 2014 (Local Time) from KHAE Reporting Station
Overcast Overcast  
Wind Chill: 44°   Ceiling: 10000
Heat Index: 46°   Visibility: 10mi
Dew Point: 41°   Wind: 5mph
Humidity: 81%   Direction: 350°N
Pressure: 30.12"   Gusts: NA
Location:  39.55°N, 91.86°W
Report Text: KHAE 310635Z AUTO 35004KT 10SM OVC100 08/05 A3012 RMK AO2
Loading
Personal Weather Stations






























Interactive Weather Map New forecast layout! Learn more

10-Day Weather Forecast

Advertisements
Track Severe Weather on mobile